Time;durP1;ratioP1;P1;durP2;ratioP2;P2;SDS_P1;SDS_P2;PMS_P1;PMS_P2;Temp;Humidity;BMP_temperature;BMP_pressure;BME280_temperature;BME280_humidity;BME280_pressure;Samples;Min_cycle;Max_cycle;Signal;HPM_P1;HPM_P2
2023/01/21 00:00:57;;;;;;;;;;;;;;;-2.16;100.00;102780.03;5070689;28;20148;-73
2023/01/21 00:03:23;;;;;;;;;;;;;;;-2.17;100.00;102782.56;5066153;28;20488;-73
2023/01/21 00:05:49;;;;;;;;;;;;;;;-2.18;100.00;102786.88;5051113;28;19924;-73
2023/01/21 00:08:14;;;;;;;;;;;;;;;-2.17;100.00;102783.47;5059354;28;20489;-73
2023/01/21 00:10:39;;;;;;;;;;;;;;;-2.16;100.00;102784.31;5059697;28;19981;-73
2023/01/21 00:13:05;;;;;;;;;;;;;;;-2.15;100.00;102781.81;5060475;28;19924;-73
2023/01/21 00:15:30;;;;;;;;;;;;;;;-2.15;100.00;102783.50;5055498;28;19924;-74
2023/01/21 00:17:56;;;;;;;;;;;;;;;-2.16;100.00;102779.13;5059631;28;19963;-73
2023/01/21 00:20:21;;;;;;;;;;;;;;;-2.20;100.00;102781.63;5057767;28;19969;-73
2023/01/21 00:22:46;;;;;;;;;;;;;;;-2.20;100.00;102783.31;5058891;28;19939;-73
2023/01/21 00:25:12;;;;;;;;;;;;;;;-2.21;100.00;102778.97;5061511;28;20410;-73
2023/01/21 00:27:37;;;;;;;;;;;;;;;-2.21;100.00;102787.66;5049147;28;19929;-73
2023/01/21 00:30:03;;;;;;;;;;;;;;;-2.21;100.00;102789.34;5058936;28;19928;-73
2023/01/21 00:32:28;;;;;;;;;;;;;;;-2.23;100.00;102793.59;5055823;28;20379;-73
2023/01/21 00:34:54;;;;;;;;;;;;;;;-2.23;100.00;102796.19;5063610;28;19975;-73
2023/01/21 00:37:19;;;;;;;;;;;;;;;-2.24;100.00;102791.84;5058643;28;20444;-73
2023/01/21 00:39:45;;;;;;;;;;;;;;;-2.25;100.00;102790.94;5056751;28;19937;-73
2023/01/21 00:42:10;;;;;;;;;;;;;;;-2.26;100.00;102799.56;5059283;28;20037;-73
2023/01/21 00:44:38;;;;;;;;;;;;;;;-2.27;100.00;102799.47;5061960;28;20015;-73
2023/01/21 00:47:04;;;;;;;;;;;;;;;-2.28;100.00;102803.81;5064256;28;19996;-73
2023/01/21 00:49:29;;;;;;;;;;;;;;;-2.27;100.00;102804.69;5061131;28;20681;-73
2023/01/21 00:51:55;;;;;;;;;;;;;;;-2.27;100.00;102808.16;5064115;28;19968;-73
2023/01/21 00:54:20;;;;;;;;;;;;;;;-2.28;100.00;102809.00;5054921;28;19924;-73
2023/01/21 00:56:46;;;;;;;;;;;;;;;-2.27;100.00;102813.34;5056767;28;19924;-73
2023/01/21 00:59:11;;;;;;;;;;;;;;;-2.26;100.00;102814.22;5058611;28;20370;-74
2023/01/21 01:01:37;;;;;;;;;;;;;;;-2.27;100.00;102802.97;5056529;28;20022;-74
2023/01/21 01:04:04;;;;;;;;;;;;;;;-2.29;100.00;102824.50;5069194;28;19997;-74
2023/01/21 01:06:29;;;;;;;;;;;;;;;-2.33;100.00;102816.56;5066853;28;20378;-73
2023/01/21 01:08:57;;;;;;;;;;;;;;;-2.34;100.00;102813.94;5062831;28;20007;-74
2023/01/21 01:11:24;;;;;;;;;;;;;;;-2.37;100.00;102817.28;5058045;28;22036;-74
2023/01/21 01:13:50;;;;;;;;;;;;;;;-2.38;100.00;102825.91;5044630;28;20420;-73
2023/01/21 01:16:15;;;;;;;;;;;;;;;-2.39;100.00;102825.84;5048050;28;20406;-73
2023/01/21 01:18:41;;;;;;;;;;;;;;;-2.41;100.00;102836.16;5060618;28;19928;-73
2023/01/21 01:21:08;;;;;;;;;;;;;;;-2.44;100.00;102840.31;5057653;28;19974;-73
2023/01/21 01:23:34;;;;;;;;;;;;;;;-2.48;100.00;102840.22;5064384;28;19928;-73
2023/01/21 01:26:00;;;;;;;;;;;;;;;-2.50;100.00;102839.25;5059405;28;20239;-73
2023/01/21 01:28:26;;;;;;;;;;;;;;;-2.50;100.00;102846.16;5062256;28;19924;-73
2023/01/21 01:30:51;;;;;;;;;;;;;;;-2.51;100.00;102840.06;5053060;28;19936;-72
2023/01/21 01:33:18;;;;;;;;;;;;;;;-2.52;100.00;102837.41;5062835;28;19986;-73
2023/01/21 01:35:45;;;;;;;;;;;;;;;-2.54;100.00;102849.44;5063278;28;19932;-73
2023/01/21 01:38:12;;;;;;;;;;;;;;;-2.55;100.00;102839.88;5039955;28;19924;-74
2023/01/21 01:40:39;;;;;;;;;;;;;;;-2.57;100.00;102849.31;5059391;28;19932;-73
2023/01/21 01:43:25;;;;;;;;;;;;;;;-2.58;100.00;102845.84;5063408;28;20080;-73
2023/01/21 01:45:50;;;;;;;;;;;;;;;-2.58;100.00;102853.63;5061556;28;19928;-73
2023/01/21 01:48:24;;;;;;;;;;;;;;;-2.56;100.00;102859.75;5065560;28;20416;-73
2023/01/21 01:50:50;;;;;;;;;;;;;;;-2.53;100.00;102866.78;5061338;28;19943;-74
2023/01/21 01:53:15;;;;;;;;;;;;;;;-2.54;100.00;102876.28;5050109;28;19924;-74
2023/01/21 01:55:41;;;;;;;;;;;;;;;-2.53;100.00;102867.66;5063335;28;19930;-73
2023/01/21 01:58:07;;;;;;;;;;;;;;;-2.53;100.00;102869.38;5064681;28;19936;-74
2023/01/21 02:00:33;;;;;;;;;;;;;;;-2.52;100.00;102871.13;5065887;28;20252;-74
2023/01/21 02:05:42;;;;;;;;;;;;;;;-2.53;100.00;102878.03;5067395;28;20067;-73
2023/01/21 02:08:08;;;;;;;;;;;;;;;-2.52;100.00;102878.91;5061879;28;19927;-74
2023/01/21 02:10:34;;;;;;;;;;;;;;;-2.50;100.00;102877.28;5069066;28;19939;-74
2023/01/21 02:12:59;;;;;;;;;;;;;;;-2.52;100.00;102874.63;5061794;28;20019;-74
2023/01/21 02:15:27;;;;;;;;;;;;;;;-2.53;100.00;102882.34;5066642;28;20338;-73
2023/01/21 02:17:52;;;;;;;;;;;;;;;-2.54;100.00;102883.16;5063033;28;19935;-75
2023/01/21 02:20:36;;;;;;;;;;;;;;;-2.55;100.00;102890.06;5060551;28;21509;-73
2023/01/21 02:23:14;;;;;;;;;;;;;;;-2.55;100.00;102884.88;5062393;28;19924;-74
2023/01/21 02:25:58;;;;;;;;;;;;;;;-2.57;100.00;102896.88;5068831;28;20045;-74
2023/01/21 02:28:35;;;;;;;;;;;;;;;-2.58;100.00;102900.31;5059197;28;19936;-74
2023/01/21 02:31:10;;;;;;;;;;;;;;;-2.61;100.00;102903.66;5046170;28;20594;-73
2023/01/21 02:33:35;;;;;;;;;;;;;;;-2.62;100.00;102911.38;5041051;28;19962;-74
2023/01/21 02:36:20;;;;;;;;;;;;;;;-2.64;100.00;102916.50;5058789;28;20411;-74
2023/01/21 02:38:49;;;;;;;;;;;;;;;-2.67;100.00;102916.34;5055590;28;20014;-73
2023/01/21 02:41:30;;;;;;;;;;;;;;;-2.69;100.00;102924.88;5060519;28;19932;-73
2023/01/21 02:44:00;;;;;;;;;;;;;;;-2.71;100.00;102924.84;5058728;28;20455;-73
2023/01/21 02:46:44;;;;;;;;;;;;;;;-2.74;100.00;102928.19;5042614;28;20525;-74
2023/01/21 02:49:22;;;;;;;;;;;;;;;-2.76;100.00;102928.94;5054566;28;19964;-74
2023/01/21 02:51:47;;;;;;;;;;;;;;;-2.77;100.00;102927.16;5054329;28;20278;-75
2023/01/21 02:54:14;;;;;;;;;;;;;;;-2.78;100.00;102928.84;5055172;28;19993;-73
2023/01/21 02:56:39;;;;;;;;;;;;;;;-2.81;100.00;102941.72;5059294;28;20387;-73
2023/01/21 02:59:05;;;;;;;;;;;;;;;-2.81;100.00;102940.81;5060337;28;19924;-74
2023/01/21 03:01:33;;;;;;;;;;;;;;;-2.83;100.00;102935.53;5066169;28;20387;-73
2023/01/21 03:04:11;;;;;;;;;;;;;;;-2.83;100.00;102934.69;5057800;28;19928;-73
2023/01/21 03:06:36;;;;;;;;;;;;;;;-2.87;100.00;102931.94;5053792;28;20309;-72
2023/01/21 03:09:05;;;;;;;;;;;;;;;-2.88;100.00;102939.66;5057441;28;19932;-73
2023/01/21 03:11:30;;;;;;;;;;;;;;;-2.90;100.00;102936.09;5061269;28;19931;-74
2023/01/21 03:16:56;;;;;;;;;;;;;;;-2.94;100.00;102940.25;5059000;28;19938;-75
2023/01/21 03:19:30;;;;;;;;;;;;;;;-2.95;100.00;102945.41;5057751;28;20014;-74
2023/01/21 03:21:55;;;;;;;;;;;;;;;-2.97;100.00;102945.31;5044275;28;19989;-74
2023/01/21 03:24:21;;;;;;;;;;;;;;;-2.98;100.00;102946.16;5059916;28;19920;-74
2023/01/21 03:26:47;;;;;;;;;;;;;;;-2.96;100.00;102949.69;5062863;28;19928;-75
2023/01/21 03:29:16;;;;;;;;;;;;;;;-2.96;100.00;102944.50;5055816;28;20012;-74
2023/01/21 03:31:42;;;;;;;;;;;;;;;-2.95;100.00;102940.22;5063315;28;20414;-75
2023/01/21 03:34:08;;;;;;;;;;;;;;;-2.94;100.00;102942.84;5049398;28;19920;-75
2023/01/21 03:36:40;;;;;;;;;;;;;;;-2.94;100.00;102945.44;5063172;28;19977;-75
2023/01/21 03:39:12;;;;;;;;;;;;;;;-2.93;100.00;102947.25;5057823;28;19920;-75
2023/01/21 03:41:37;;;;;;;;;;;;;;;-2.94;100.00;102942.84;5063677;28;19938;-75
2023/01/21 03:44:02;;;;;;;;;;;;;;;-2.93;100.00;102948.94;5065468;28;20322;-74
2023/01/21 03:46:28;;;;;;;;;;;;;;;-2.96;100.00;102949.69;5061494;28;19951;-75
2023/01/21 03:48:55;;;;;;;;;;;;;;;-2.97;100.00;102947.00;5057520;28;19932;-75
2023/01/21 03:51:40;;;;;;;;;;;;;;;-2.97;100.00;102953.09;5070621;28;19924;-75
2023/01/21 03:54:06;;;;;;;;;;;;;;;-2.98;100.00;102951.34;5065696;28;19971;-75
2023/01/21 03:56:31;;;;;;;;;;;;;;;-2.98;100.00;102950.44;5071259;28;20067;-74
2023/01/21 03:58:57;;;;;;;;;;;;;;;-2.99;100.00;102952.16;5063377;28;19940;-74
2023/01/21 04:01:22;;;;;;;;;;;;;;;-3.00;100.00;102952.94;5071121;28;20024;-74
2023/01/21 04:03:48;;;;;;;;;;;;;;;-3.00;100.00;102947.75;5066787;28;19982;-75
2023/01/21 04:06:16;;;;;;;;;;;;;;;-3.03;100.00;102961.50;5068600;28;20074;-74
2023/01/21 04:08:42;;;;;;;;;;;;;;;-3.03;100.00;102968.38;5062921;28;19996;-74
2023/01/21 04:11:07;;;;;;;;;;;;;;;-3.05;100.00;102960.53;5071499;28;20068;-74
2023/01/21 04:13:33;;;;;;;;;;;;;;;-3.05;100.00;102959.66;5066386;28;19934;-75
2023/01/21 04:15:58;;;;;;;;;;;;;;;-3.06;100.00;102961.34;5063534;28;19939;-75
2023/01/21 04:18:23;;;;;;;;;;;;;;;-3.07;100.00;102958.66;5062646;28;19997;-75
2023/01/21 04:20:49;;;;;;;;;;;;;;;-3.09;100.00;102960.31;5060309;28;20037;-75
2023/01/21 04:23:14;;;;;;;;;;;;;;;-3.10;100.00;102963.72;5055094;28;19928;-74
2023/01/21 04:25:42;;;;;;;;;;;;;;;-3.09;100.00;102966.41;5054971;28;20118;-75
2023/01/21 04:28:08;;;;;;;;;;;;;;;-3.11;100.00;102964.56;5057081;28;20899;-74
2023/01/21 04:30:33;;;;;;;;;;;;;;;-3.11;100.00;102967.16;5056964;28;20642;-74
2023/01/21 04:32:59;;;;;;;;;;;;;;;-3.09;100.00;102969.00;5064167;28;20358;-74
2023/01/21 04:35:24;;;;;;;;;;;;;;;-3.03;100.00;102970.97;5058893;28;20302;-74
2023/01/21 04:37:50;;;;;;;;;;;;;;;-3.04;100.00;102979.56;5056624;28;19981;-75
2023/01/21 04:40:15;;;;;;;;;;;;;;;-3.05;100.00;102981.25;5061243;28;20361;-75
2023/01/21 04:42:41;;;;;;;;;;;;;;;-3.00;100.00;102978.88;5059146;28;20360;-75
2023/01/21 04:45:07;;;;;;;;;;;;;;;-2.95;100.00;102992.94;5054086;28;20652;-74
2023/01/21 04:47:32;;;;;;;;;;;;;;;-2.93;100.00;102999.09;5056771;28;19933;-74
2023/01/21 04:49:58;;;;;;;;;;;;;;;-2.87;100.00;103006.25;5075552;28;19928;-75
2023/01/21 04:52:23;;;;;;;;;;;;;;;-2.83;100.00;103022.84;5054642;28;19932;-75
2023/01/21 04:54:49;;;;;;;;;;;;;;;-2.82;100.00;103011.63;5054897;28;19939;-74
2023/01/21 04:57:14;;;;;;;;;;;;;;;-2.81;100.00;103016.91;5058815;28;19944;-74
2023/01/21 04:59:40;;;;;;;;;;;;;;;-2.77;100.00;103017.94;5058552;28;19977;-74
2023/01/21 05:02:05;;;;;;;;;;;;;;;-2.75;100.00;103019.78;5059435;28;19955;-74
2023/01/21 05:04:31;;;;;;;;;;;;;;;-2.73;100.00;103012.94;5059205;28;20298;-75
2023/01/21 05:06:57;;;;;;;;;;;;;;;-2.67;100.00;103009.72;5065200;28;19924;-74
2023/01/21 05:09:22;;;;;;;;;;;;;;;-2.63;100.00;103016.84;5063172;28;19929;-74
2023/01/21 05:11:48;;;;;;;;;;;;;;;-2.60;100.00;103016.97;5064417;28;19928;-74
2023/01/21 05:14:13;;;;;;;;;;;;;;;-2.54;100.00;103015.47;5078183;28;19928;-75
2023/01/21 05:16:39;;;;;;;;;;;;;;;-2.53;100.00;103017.22;5063927;28;20354;-74
2023/01/21 05:19:04;;;;;;;;;;;;;;;-2.53;100.00;103017.22;5070300;28;20464;-74
2023/01/21 05:21:30;;;;;;;;;;;;;;;-2.53;100.00;103009.44;5064013;28;19932;-74
2023/01/21 05:23:55;;;;;;;;;;;;;;;-2.51;100.00;103010.44;5061842;28;19936;-74
2023/01/21 05:26:20;;;;;;;;;;;;;;;-2.51;100.00;103032.06;5061899;28;19936;-74
2023/01/21 05:28:46;;;;;;;;;;;;;;;-2.49;100.00;103029.53;5064280;28;20417;-75
2023/01/21 05:31:11;;;;;;;;;;;;;;;-2.46;100.00;103034.84;5067174;28;19970;-75
2023/01/21 05:33:37;;;;;;;;;;;;;;;-2.43;100.00;103045.38;5061370;28;19931;-74
2023/01/21 05:36:03;;;;;;;;;;;;;;;-2.43;100.00;103063.53;5062562;28;19982;-75
2023/01/21 05:38:28;;;;;;;;;;;;;;;-2.41;100.00;103067.06;5060305;28;21108;-74
2023/01/21 05:40:57;;;;;;;;;;;;;;;-2.39;100.00;103065.41;5057118;28;20363;-75
2023/01/21 05:43:23;;;;;;;;;;;;;;;-2.33;100.00;103070.03;5062302;28;19926;-75
2023/01/21 05:45:48;;;;;;;;;;;;;;;-2.28;100.00;103078.00;5057675;28;19928;-73
2023/01/21 05:48:14;;;;;;;;;;;;;;;-2.25;100.00;103067.75;5061871;28;21550;-73
2023/01/21 05:50:39;;;;;;;;;;;;;;;-2.19;100.00;103065.41;5064181;28;19939;-73
2023/01/21 05:53:04;;;;;;;;;;;;;;;-2.14;100.00;103074.28;5056768;28;19932;-73
2023/01/21 05:55:30;;;;;;;;;;;;;;;-2.10;100.00;103065.81;5056690;28;20390;-74
2023/01/21 05:57:56;;;;;;;;;;;;;;;-2.07;100.00;103072.88;5058336;28;19920;-73
2023/01/21 06:00:21;;;;;;;;;;;;;;;-2.05;100.00;103086.78;5055791;28;21884;-73
2023/01/21 06:02:46;;;;;;;;;;;;;;;-2.01;100.00;103085.22;5053805;28;19963;-74
2023/01/21 06:05:12;;;;;;;;;;;;;;;-1.97;100.00;103084.53;5060892;28;20015;-74
2023/01/21 06:07:37;;;;;;;;;;;;;;;-1.97;100.00;103085.41;5064060;28;19924;-74
2023/01/21 06:10:03;;;;;;;;;;;;;;;-1.95;100.00;103099.34;5061408;28;19943;-74
2023/01/21 06:12:28;;;;;;;;;;;;;;;-1.96;100.00;103100.16;5056005;28;19935;-74
2023/01/21 06:14:54;;;;;;;;;;;;;;;-1.98;100.00;103109.59;5056948;28;19975;-74
2023/01/21 06:17:19;;;;;;;;;;;;;;;-2.00;100.00;103113.84;5043697;28;20625;-74
2023/01/21 06:19:45;;;;;;;;;;;;;;;-2.03;100.00;103116.28;5056230;28;20928;-74
2023/01/21 06:22:12;;;;;;;;;;;;;;;-2.05;100.00;103130.94;5057921;28;19932;-74
2023/01/21 06:24:37;;;;;;;;;;;;;;;-2.05;100.00;103123.13;5058878;28;20685;-74
2023/01/21 06:27:03;;;;;;;;;;;;;;;-2.05;100.00;103130.94;5055911;28;19942;-74
2023/01/21 06:29:28;;;;;;;;;;;;;;;-2.05;100.00;103139.59;5055624;28;19983;-74
2023/01/21 06:31:54;;;;;;;;;;;;;;;-2.06;100.00;103137.81;5057122;28;20391;-74
2023/01/21 06:34:19;;;;;;;;;;;;;;;-2.07;100.00;103141.25;5053668;28;19956;-74
2023/01/21 06:36:45;;;;;;;;;;;;;;;-2.08;100.00;103142.06;5061051;28;19955;-74
2023/01/21 06:39:10;;;;;;;;;;;;;;;-2.08;100.00;103136.88;5063394;28;20398;-75
2023/01/21 06:41:35;;;;;;;;;;;;;;;-2.07;100.00;103132.59;5060849;28;19932;-75
2023/01/21 06:44:01;;;;;;;;;;;;;;;-2.06;100.00;103142.13;5055088;28;19982;-74
2023/01/21 06:46:27;;;;;;;;;;;;;;;-2.08;100.00;103134.28;5056108;28;19939;-74
2023/01/21 06:48:53;;;;;;;;;;;;;;;-2.11;100.00;103141.94;5053911;28;20669;-73
2023/01/21 06:51:18;;;;;;;;;;;;;;;-2.13;100.00;103137.50;5056615;28;20020;-73
2023/01/21 06:53:44;;;;;;;;;;;;;;;-2.17;100.00;103144.25;5046910;28;19943;-73
2023/01/21 06:56:09;;;;;;;;;;;;;;;-2.20;100.00;103144.09;5058352;28;19939;-76
2023/01/21 06:58:34;;;;;;;;;;;;;;;-2.22;100.00;103148.34;5059801;28;19951;-76
2023/01/21 07:01:00;;;;;;;;;;;;;;;-2.23;100.00;103147.44;5072357;28;19932;-74
2023/01/21 07:03:25;;;;;;;;;;;;;;;-2.22;100.00;103153.53;5054043;28;19974;-73
2023/01/21 07:05:51;;;;;;;;;;;;;;;-2.22;100.00;103150.94;5063466;28;19924;-73
2023/01/21 07:08:16;;;;;;;;;;;;;;;-2.21;100.00;103160.50;5062511;28;20434;-74
2023/01/21 07:10:41;;;;;;;;;;;;;;;-2.22;100.00;103164.78;5073677;28;19966;-74
2023/01/21 07:13:07;;;;;;;;;;;;;;;-2.23;100.00;103164.75;5072256;28;19963;-73
2023/01/21 07:15:32;;;;;;;;;;;;;;;-2.24;100.00;103171.63;5072073;28;19928;-75
2023/01/21 07:17:58;;;;;;;;;;;;;;;-2.25;100.00;103180.25;5067072;28;19963;-74
2023/01/21 07:20:24;;;;;;;;;;;;;;;-2.25;100.00;103181.94;5061415;28;19928;-74
2023/01/21 07:22:50;;;;;;;;;;;;;;;-2.26;100.00;103193.16;5065421;28;20003;-74
2023/01/21 07:25:15;;;;;;;;;;;;;;;-2.30;100.00;103191.25;5068941;28;20112;-74
2023/01/21 07:27:41;;;;;;;;;;;;;;;-2.33;100.00;103198.06;5064856;28;20272;-74
2023/01/21 07:30:07;;;;;;;;;;;;;;;-2.35;100.00;103203.97;5060588;28;19939;-74
2023/01/21 07:32:32;;;;;;;;;;;;;;;-2.37;100.00;103216.91;5064398;28;19962;-74
2023/01/21 07:34:57;;;;;;;;;;;;;;;-2.36;100.00;103208.31;5066230;28;20310;-74
2023/01/21 07:37:23;;;;;;;;;;;;;;;-2.38;100.00;103220.34;5058182;28;20289;-75
2023/01/21 07:39:48;;;;;;;;;;;;;;;-2.41;100.00;103220.16;5045789;28;19931;-75
2023/01/21 07:42:14;;;;;;;;;;;;;;;-2.45;100.00;103220.88;5058545;28;19932;-74
2023/01/21 07:44:39;;;;;;;;;;;;;;;-2.49;100.00;103227.63;5054990;28;19956;-74
2023/01/21 07:47:04;;;;;;;;;;;;;;;-2.48;100.00;103228.47;5053243;28;19971;-74
2023/01/21 07:49:30;;;;;;;;;;;;;;;-2.48;100.00;103233.66;5062078;28;20383;-74
2023/01/21 07:51:56;;;;;;;;;;;;;;;-2.48;100.00;103238.88;5062281;28;20485;-74
2023/01/21 07:54:21;;;;;;;;;;;;;;;-2.49;100.00;103243.19;5066278;28;19928;-74
2023/01/21 07:56:47;;;;;;;;;;;;;;;-2.48;100.00;103246.66;5063790;28;19982;-74
2023/01/21 07:59:13;;;;;;;;;;;;;;;-2.47;100.00;103251.00;5055539;28;19933;-75
2023/01/21 08:01:39;;;;;;;;;;;;;;;-2.45;100.00;103259.78;5055507;28;20295;-75
2023/01/21 08:04:06;;;;;;;;;;;;;;;-2.43;100.00;103268.53;5063233;28;19938;-74
2023/01/21 08:06:32;;;;;;;;;;;;;;;-2.41;100.00;103256.50;5044127;28;20405;-75
2023/01/21 08:08:57;;;;;;;;;;;;;;;-2.39;100.00;103264.38;5042312;28;19966;-74
2023/01/21 08:11:22;;;;;;;;;;;;;;;-2.38;100.00;103267.03;5061644;28;19924;-75
2023/01/21 08:13:48;;;;;;;;;;;;;;;-2.35;100.00;103261.97;5059069;28;19928;-75
2023/01/21 08:16:14;;;;;;;;;;;;;;;-2.33;100.00;103262.94;5061081;28;19960;-75
2023/01/21 08:18:39;;;;;;;;;;;;;;;-2.32;100.00;103262.13;5056514;28;19932;-75
2023/01/21 08:21:05;;;;;;;;;;;;;;;-2.30;100.00;103264.78;5063281;28;20472;-75
2023/01/21 08:23:30;;;;;;;;;;;;;;;-2.28;100.00;103270.97;5053841;28;20406;-75
2023/01/21 08:25:56;;;;;;;;;;;;;;;-2.27;100.00;103269.22;5059804;28;19928;-75
2023/01/21 08:28:22;;;;;;;;;;;;;;;-2.25;100.00;103265.00;5065129;28;20020;-75
2023/01/21 08:30:47;;;;;;;;;;;;;;;-2.23;100.00;103268.56;5065157;28;19981;-75
2023/01/21 08:33:13;;;;;;;;;;;;;;;-2.20;100.00;103268.69;5062680;28;19927;-75
2023/01/21 08:35:38;;;;;;;;;;;;;;;-2.18;100.00;103274.88;5058828;28;20070;-75
2023/01/21 08:38:03;;;;;;;;;;;;;;;-2.15;100.00;103275.00;5058222;28;20600;-75
2023/01/21 08:40:29;;;;;;;;;;;;;;;-2.14;100.00;103274.19;5057893;28;19978;-75
2023/01/21 08:42:58;;;;;;;;;;;;;;;-2.11;100.00;103271.75;5051430;28;19928;-75
2023/01/21 08:45:24;;;;;;;;;;;;;;;-2.08;100.00;103270.97;5037151;28;19920;-75
2023/01/21 08:47:49;;;;;;;;;;;;;;;-2.06;100.00;103280.63;5048576;28;20480;-76
2023/01/21 08:50:15;;;;;;;;;;;;;;;-2.05;100.00;103281.50;5047566;28;19928;-75
2023/01/21 08:52:40;;;;;;;;;;;;;;;-2.05;100.00;103284.97;5051351;28;20474;-75
2023/01/21 08:55:06;;;;;;;;;;;;;;;-2.06;100.00;103291.00;5057337;28;19935;-75
2023/01/21 08:57:31;;;;;;;;;;;;;;;-2.07;100.00;103288.34;5050686;28;19928;-75
2023/01/21 08:59:57;;;;;;;;;;;;;;;-2.07;100.00;103294.41;5054277;28;19935;-75
2023/01/21 09:02:25;;;;;;;;;;;;;;;-2.06;100.00;103287.53;5056818;28;20494;-74
2023/01/21 09:04:50;;;;;;;;;;;;;;;-2.06;100.00;103290.13;5051448;28;20701;-75
2023/01/21 09:07:15;;;;;;;;;;;;;;;-2.03;100.00;103299.78;5062070;28;19938;-75
2023/01/21 09:09:41;;;;;;;;;;;;;;;-2.06;100.00;103296.19;5051511;28;19929;-74
2023/01/21 09:12:06;;;;;;;;;;;;;;;-2.03;100.00;103310.16;5055201;28;19933;-75
2023/01/21 09:14:32;;;;;;;;;;;;;;;-2.01;100.00;103304.22;5055652;28;19950;-76
2023/01/21 09:16:57;;;;;;;;;;;;;;;-1.97;100.00;103300.06;5048047;28;19932;-75
2023/01/21 09:19:26;;;;;;;;;;;;;;;-1.92;100.00;103303.72;5045722;28;19930;-75
2023/01/21 09:21:53;;;;;;;;;;;;;;;-1.85;100.00;103304.91;5039339;28;19932;-76
2023/01/21 09:24:19;;;;;;;;;;;;;;;-1.80;100.00;103304.31;5054762;28;19924;-75
2023/01/21 09:26:44;;;;;;;;;;;;;;;-1.74;100.00;103302.81;5058562;28;19997;-75
2023/01/21 09:29:10;;;;;;;;;;;;;;;-1.65;100.00;103316.19;5049038;28;19928;-74
2023/01/21 09:31:35;;;;;;;;;;;;;;;-1.59;100.00;103319.09;5049882;28;20367;-74
2023/01/21 09:34:02;;;;;;;;;;;;;;;-1.56;100.00;103314.03;5048796;28;19937;-74
2023/01/21 09:36:29;;;;;;;;;;;;;;;-1.53;100.00;103324.56;5053058;28;20093;-74
2023/01/21 09:38:54;;;;;;;;;;;;;;;-1.49;100.00;103332.50;5049907;28;20406;-74
2023/01/21 09:41:32;;;;;;;;;;;;;;;-1.49;100.00;103335.09;5049891;28;19959;-74
2023/01/21 09:44:17;;;;;;;;;;;;;;;-1.49;100.00;103338.56;5056256;28;19928;-75
2023/01/21 09:47:03;;;;;;;;;;;;;;;-1.49;100.00;103342.91;5055322;28;19928;-75
2023/01/21 09:49:38;;;;;;;;;;;;;;;-1.49;100.00;103340.31;5062031;28;20235;-76
2023/01/21 09:52:16;;;;;;;;;;;;;;;-1.49;100.00;103343.78;5066055;28;19928;-76
2023/01/21 09:54:41;;;;;;;;;;;;;;;-1.48;100.00;103337.75;5057412;28;19992;-76
2023/01/21 09:57:25;;;;;;;;;;;;;;;-1.45;100.00;103348.31;5054970;28;20132;-76
2023/01/21 09:59:57;;;;;;;;;;;;;;;-1.40;100.00;103340.72;5054727;28;20383;-77
2023/01/21 10:02:41;;;;;;;;;;;;;;;-1.37;100.00;103351.22;5058808;28;19928;-76
2023/01/21 10:05:31;;;;;;;;;;;;;;;-1.34;100.00;103348.78;5060206;28;19928;-77
2023/01/21 10:08:02;;;;;;;;;;;;;;;-1.31;100.00;103351.50;5063768;28;19935;-76
2023/01/21 10:10:28;;;;;;;;;;;;;;;-1.26;100.00;103357.81;5066690;28;19928;-76
2023/01/21 10:12:56;;;;;;;;;;;;;;;-1.20;100.00;103351.09;5065812;28;19924;-76
2023/01/21 10:15:25;;;;;;;;;;;;;;;-1.16;100.00;103348.69;5059375;28;19924;-76
2023/01/21 10:17:56;;;;;;;;;;;;;;;-1.12;100.00;103357.53;5059921;28;19938;-76
2023/01/21 10:20:23;;;;;;;;;;;;;;;-1.09;100.00;103360.28;5062178;28;20044;-76
2023/01/21 10:22:50;;;;;;;;;;;;;;;-1.07;100.00;103356.00;5065489;28;19928;-76
2023/01/21 10:25:22;;;;;;;;;;;;;;;-1.05;100.00;103364.75;5062565;28;19928;-76
2023/01/21 10:27:48;;;;;;;;;;;;;;;-1.02;100.00;103366.63;5066336;28;19932;-76
2023/01/21 10:30:21;;;;;;;;;;;;;;;-1.01;100.00;103363.19;5057535;28;19935;-76
2023/01/21 10:32:47;;;;;;;;;;;;;;;-1.01;100.00;103371.88;5064388;28;19978;-76
2023/01/21 10:35:17;;;;;;;;;;;;;;;-0.99;100.00;103372.84;5066508;28;19964;-76
2023/01/21 10:37:51;;;;;;;;;;;;;;;-0.94;100.00;103374.75;5063511;28;19931;-76
2023/01/21 10:40:41;;;;;;;;;;;;;;;-0.92;100.00;103370.50;5058711;28;19932;-76
2023/01/21 10:43:18;;;;;;;;;;;;;;;-0.89;100.00;103370.63;5050199;28;19939;-76
2023/01/21 10:45:46;;;;;;;;;;;;;;;-0.89;100.00;103365.41;5040822;28;19925;-76
2023/01/21 10:48:18;;;;;;;;;;;;;;;-0.89;100.00;103374.13;5060188;28;19935;-76
2023/01/21 10:50:54;;;;;;;;;;;;;;;-0.88;100.00;103375.03;5041894;28;20430;-75
2023/01/21 10:53:22;;;;;;;;;;;;;;;-0.89;100.00;103378.44;5058335;28;20430;-76
2023/01/21 10:56:04;;;;;;;;;;;;;;;-0.89;100.00;103378.44;5061736;28;20396;-76
2023/01/21 10:58:40;;;;;;;;;;;;;;;-0.90;100.00;103376.66;5066021;28;20007;-76
2023/01/21 11:01:07;;;;;;;;;;;;;;;-0.89;100.00;103381.03;5061799;28;20406;-76
2023/01/21 11:03:40;;;;;;;;;;;;;;;-0.89;100.00;103384.53;5063294;28;19935;-76
2023/01/21 11:06:07;;;;;;;;;;;;;;;-0.89;100.00;103381.03;5063419;28;19932;-76
2023/01/21 11:08:32;;;;;;;;;;;;;;;-0.89;100.00;103375.81;5055659;28;19928;-76
2023/01/21 11:10:58;;;;;;;;;;;;;;;-0.88;100.00;103378.50;5059311;28;19924;-76
2023/01/21 11:13:23;;;;;;;;;;;;;;;-0.89;100.00;103378.44;5062282;28;19977;-76
2023/01/21 11:15:50;;;;;;;;;;;;;;;-0.89;100.00;103375.81;5057428;28;20015;-76
2023/01/21 11:18:28;;;;;;;;;;;;;;;-0.89;100.00;103376.72;5058520;28;20472;-76
2023/01/21 11:20:55;;;;;;;;;;;;;;;-0.89;100.00;103381.03;5060391;28;19944;-76
2023/01/21 11:23:27;;;;;;;;;;;;;;;-0.88;100.00;103372.44;5047762;28;20394;-76
2023/01/21 11:25:59;;;;;;;;;;;;;;;-0.86;100.00;103370.78;5056684;28;20394;-76
2023/01/21 11:28:28;;;;;;;;;;;;;;;-0.86;100.00;103360.38;5072357;28;19960;-76
2023/01/21 11:31:09;;;;;;;;;;;;;;;-0.87;100.00;103358.59;5053896;28;20037;-76
2023/01/21 11:33:34;;;;;;;;;;;;;;;-0.87;100.00;103362.06;5061760;28;19924;-75
2023/01/21 11:36:16;;;;;;;;;;;;;;;-0.86;100.00;103373.38;5057263;28;19939;-76
2023/01/21 11:38:42;;;;;;;;;;;;;;;-0.80;100.00;103371.03;5055516;28;20019;-75
2023/01/21 11:41:10;;;;;;;;;;;;;;;-0.78;100.00;103373.69;5059486;28;20373;-76
2023/01/21 11:43:36;;;;;;;;;;;;;;;-0.77;100.00;103370.28;5071579;28;20367;-76
2023/01/21 11:46:21;;;;;;;;;;;;;;;-0.73;100.00;103367.88;5049530;28;20133;-75
2023/01/21 11:48:47;;;;;;;;;;;;;;;-0.66;100.00;103371.59;5054819;28;19928;-76
2023/01/21 11:51:13;;;;;;;;;;;;;;;-0.62;100.00;103377.81;5059978;28;19935;-76
2023/01/21 11:53:40;;;;;;;;;;;;;;;-0.56;100.00;103375.47;5067293;28;20299;-76
2023/01/21 11:56:05;;;;;;;;;;;;;;;-0.53;100.00;103380.84;5065519;28;20373;-76
2023/01/21 11:58:31;;;;;;;;;;;;;;;-0.46;100.00;103375.06;5065922;28;19924;-75
2023/01/21 12:00:58;;;;;;;;;;;;;;;-0.43;100.00;103366.47;5061449;28;20501;-76
2023/01/21 12:03:24;;;;;;;;;;;;;;;-0.40;100.00;103364.00;5065504;28;20627;-76
2023/01/21 12:05:50;;;;;;;;;;;;;;;-0.40;100.00;103377.00;5048902;28;19936;-76
2023/01/21 12:08:18;;;;;;;;;;;;;;;-0.38;100.00;103369.28;5063952;28;21754;-75
2023/01/21 12:10:43;;;;;;;;;;;;;;;-0.38;100.00;103372.75;5063356;28;19924;-76
2023/01/21 12:13:19;;;;;;;;;;;;;;;-0.34;100.00;103372.06;5066817;28;19920;-76
2023/01/21 12:15:47;;;;;;;;;;;;;;;-0.29;100.00;103369.63;5061117;28;19928;-75
2023/01/21 12:18:21;;;;;;;;;;;;;;;-0.23;100.00;103367.28;5060047;28;19924;-76
2023/01/21 12:20:51;;;;;;;;;;;;;;;-0.16;100.00;103371.91;5059372;28;20023;-75
2023/01/21 12:23:26;;;;;;;;;;;;;;;-0.16;100.00;103371.91;5060918;28;20016;-76
2023/01/21 12:26:08;;;;;;;;;;;;;;;-0.15;100.00;103362.38;5059094;28;19935;-76
2023/01/21 12:28:40;;;;;;;;;;;;;;;-0.12;100.00;103359.88;5063330;28;19928;-76
2023/01/21 12:31:10;;;;;;;;;;;;;;;-0.15;100.00;103371.06;5063941;28;19929;-76
2023/01/21 12:33:59;;;;;;;;;;;;;;;-0.16;100.00;103366.69;5064014;28;19924;-76
2023/01/21 12:36:35;;;;;;;;;;;;;;;-0.12;100.00;103362.50;5043353;28;19928;-76